sensor_id;sensor_type;location;lat;lon;timestamp;pressure;altitude;pressure_sealevel;temperature;humidity
2397;BME280;1209;48.410;9.054;2022-08-19T00:02:21;95881.84;;;19.83;100.00
2397;BME280;1209;48.410;9.054;2022-08-19T00:04:47;95873.66;;;19.85;100.00
2397;BME280;1209;48.410;9.054;2022-08-19T00:07:17;95880.41;;;19.92;100.00
2397;BME280;1209;48.410;9.054;2022-08-19T00:09:43;95878.63;;;19.81;100.00
2397;BME280;1209;48.410;9.054;2022-08-19T00:12:08;95874.78;;;19.72;100.00
2397;BME280;1209;48.410;9.054;2022-08-19T00:14:34;95865.47;;;19.69;100.00
2397;BME280;1209;48.410;9.054;2022-08-19T00:17:00;95853.19;;;19.63;100.00
2397;BME280;1209;48.410;9.054;2022-08-19T00:19:27;95860.81;;;19.60;100.00
2397;BME280;1209;48.410;9.054;2022-08-19T00:21:53;95853.03;;;19.53;100.00
2397;BME280;1209;48.410;9.054;2022-08-19T00:24:20;95851.41;;;19.52;100.00
2397;BME280;1209;48.410;9.054;2022-08-19T00:26:45;95844.69;;;19.61;100.00
2397;BME280;1209;48.410;9.054;2022-08-19T00:29:12;95845.41;;;19.57;100.00
2397;BME280;1209;48.410;9.054;2022-08-19T00:31:38;95851.25;;;19.59;100.00
2397;BME280;1209;48.410;9.054;2022-08-19T00:34:04;95854.63;;;19.54;100.00
2397;BME280;1209;48.410;9.054;2022-08-19T00:36:30;95862.34;;;19.56;100.00
2397;BME280;1209;48.410;9.054;2022-08-19T00:38:56;95864.44;;;19.54;100.00
2397;BME280;1209;48.410;9.054;2022-08-19T00:41:24;95868.22;;;19.58;100.00
2397;BME280;1209;48.410;9.054;2022-08-19T00:44:07;95869.50;;;19.55;100.00
2397;BME280;1209;48.410;9.054;2022-08-19T00:46:36;95873.50;;;19.58;100.00
2397;BME280;1209;48.410;9.054;2022-08-19T00:49:09;95876.72;;;19.60;100.00
2397;BME280;1209;48.410;9.054;2022-08-19T00:51:34;95869.00;;;19.58;100.00
2397;BME280;1209;48.410;9.054;2022-08-19T00:54:02;95858.91;;;19.55;100.00
2397;BME280;1209;48.410;9.054;2022-08-19T00:56:28;95861.03;;;19.41;100.00
2397;BME280;1209;48.410;9.054;2022-08-19T00:58:57;95863.94;;;19.57;100.00
2397;BME280;1209;48.410;9.054;2022-08-19T01:01:23;95868.22;;;19.58;100.00
2397;BME280;1209;48.410;9.054;2022-08-19T01:03:49;95864.44;;;19.54;100.00
2397;BME280;1209;48.410;9.054;2022-08-19T01:06:14;95861.13;;;19.46;100.00
2397;BME280;1209;48.410;9.054;2022-08-19T01:08:40;95861.19;;;19.52;100.00
2397;BME280;1209;48.410;9.054;2022-08-19T01:11:06;95862.47;;;19.49;100.00
2397;BME280;1209;48.410;9.054;2022-08-19T01:13:33;95847.50;;;19.55;100.00
2397;BME280;1209;48.410;9.054;2022-08-19T01:16:05;95860.03;;;19.59;100.00
2397;BME280;1209;48.410;9.054;2022-08-19T01:18:32;95856.88;;;19.62;100.00
2397;BME280;1209;48.410;9.054;2022-08-19T01:21:06;95861.47;;;19.67;100.00
2397;BME280;1209;48.410;9.054;2022-08-19T01:23:32;95863.06;;;19.68;100.00
2397;BME280;1209;48.410;9.054;2022-08-19T01:26:19;95864.44;;;19.70;100.00
2397;BME280;1209;48.410;9.054;2022-08-19T01:28:48;95861.53;;;19.72;100.00
2397;BME280;1209;48.410;9.054;2022-08-19T01:31:17;95864.09;;;19.67;100.00
2397;BME280;1209;48.410;9.054;2022-08-19T01:33:43;95860.91;;;19.65;100.00
2397;BME280;1209;48.410;9.054;2022-08-19T01:36:13;95865.47;;;19.69;100.00
2397;BME280;1209;48.410;9.054;2022-08-19T01:38:40;95865.72;;;19.68;100.00
2397;BME280;1209;48.410;9.054;2022-08-19T01:41:08;95859.59;;;19.67;100.00
2397;BME280;1209;48.410;9.054;2022-08-19T01:43:34;95857.38;;;19.59;100.00
2397;BME280;1209;48.410;9.054;2022-08-19T01:46:00;95861.31;;;19.57;100.00
2397;BME280;1209;48.410;9.054;2022-08-19T01:48:26;95858.16;;;19.60;100.00
2397;BME280;1209;48.410;9.054;2022-08-19T01:50:54;95855.28;;;19.61;100.00
2397;BME280;1209;48.410;9.054;2022-08-19T01:53:20;95855.13;;;19.68;100.00
2397;BME280;1209;48.410;9.054;2022-08-19T01:55:45;95853.25;;;19.68;100.00
2397;BME280;1209;48.410;9.054;2022-08-19T01:58:15;95857.75;;;19.68;100.00
2397;BME280;1209;48.410;9.054;2022-08-19T02:00:43;95853.75;;;19.65;100.00
2397;BME280;1209;48.410;9.054;2022-08-19T02:03:08;95840.34;;;19.72;100.00
2397;BME280;1209;48.410;9.054;2022-08-19T02:05:36;95845.00;;;19.65;100.00
2397;BME280;1209;48.410;9.054;2022-08-19T02:08:02;95846.78;;;19.59;100.00
2397;BME280;1209;48.410;9.054;2022-08-19T02:10:27;95850.03;;;19.49;100.00
2397;BME280;1209;48.410;9.054;2022-08-19T02:12:53;95860.25;;;19.74;100.00
2397;BME280;1209;48.410;9.054;2022-08-19T02:15:19;95858.47;;;19.80;100.00
2397;BME280;1209;48.410;9.054;2022-08-19T02:17:46;95856.78;;;19.74;100.00
2397;BME280;1209;48.410;9.054;2022-08-19T02:20:12;95855.34;;;19.83;100.00
2397;BME280;1209;48.410;9.054;2022-08-19T02:22:39;95843.69;;;19.84;100.00
2397;BME280;1209;48.410;9.054;2022-08-19T02:25:06;95852.38;;;19.79;100.00
2397;BME280;1209;48.410;9.054;2022-08-19T02:27:32;95836.28;;;19.86;100.00
2397;BME280;1209;48.410;9.054;2022-08-19T02:29:59;95836.78;;;19.83;100.00
2397;BME280;1209;48.410;9.054;2022-08-19T02:32:24;95843.22;;;19.87;100.00
2397;BME280;1209;48.410;9.054;2022-08-19T02:34:49;95838.66;;;19.66;100.00
2397;BME280;1209;48.410;9.054;2022-08-19T02:37:15;95829.25;;;19.75;100.00
2397;BME280;1209;48.410;9.054;2022-08-19T02:39:59;95831.00;;;19.86;100.00
2397;BME280;1209;48.410;9.054;2022-08-19T02:42:24;95829.25;;;19.75;100.00
2397;BME280;1209;48.410;9.054;2022-08-19T02:44:50;95832.03;;;19.85;100.00
2397;BME280;1209;48.410;9.054;2022-08-19T02:47:18;95837.03;;;19.98;100.00
2397;BME280;1209;48.410;9.054;2022-08-19T02:49:44;95831.41;;;19.95;100.00
2397;BME280;1209;48.410;9.054;2022-08-19T02:52:10;95839.44;;;20.00;100.00
2397;BME280;1209;48.410;9.054;2022-08-19T02:54:36;95841.78;;;19.96;100.00
2397;BME280;1209;48.410;9.054;2022-08-19T02:57:03;95848.59;;;19.92;100.00
2397;BME280;1209;48.410;9.054;2022-08-19T02:59:30;95845.88;;;19.87;100.00
2397;BME280;1209;48.410;9.054;2022-08-19T03:01:56;95848.53;;;19.87;100.00
2397;BME280;1209;48.410;9.054;2022-08-19T03:04:21;95839.78;;;19.87;100.00
2397;BME280;1209;48.410;9.054;2022-08-19T03:06:48;95842.25;;;19.93;100.00
2397;BME280;1209;48.410;9.054;2022-08-19T03:09:14;95842.25;;;19.93;100.00
2397;BME280;1209;48.410;9.054;2022-08-19T03:11:40;95841.44;;;19.76;100.00
2397;BME280;1209;48.410;9.054;2022-08-19T03:14:08;95832.16;;;19.73;100.00
2397;BME280;1209;48.410;9.054;2022-08-19T03:16:45;95831.91;;;19.75;100.00
2397;BME280;1209;48.410;9.054;2022-08-19T03:19:11;95836.22;;;19.81;100.00
2397;BME280;1209;48.410;9.054;2022-08-19T03:21:37;95834.16;;;19.66;100.00
2397;BME280;1209;48.410;9.054;2022-08-19T03:24:04;95834.16;;;19.66;100.00
2397;BME280;1209;48.410;9.054;2022-08-19T03:26:31;95836.41;;;19.58;100.00
2397;BME280;1209;48.410;9.054;2022-08-19T03:28:57;95833.53;;;19.59;100.00
2397;BME280;1209;48.410;9.054;2022-08-19T03:31:22;95838.97;;;19.69;100.00
2397;BME280;1209;48.410;9.054;2022-08-19T03:33:49;95840.19;;;19.62;100.00
2397;BME280;1209;48.410;9.054;2022-08-19T03:36:17;95833.34;;;19.66;100.00
2397;BME280;1209;48.410;9.054;2022-08-19T03:38:46;95846.44;;;19.56;100.00
2397;BME280;1209;48.410;9.054;2022-08-19T03:41:17;95835.84;;;19.56;100.00
2397;BME280;1209;48.410;9.054;2022-08-19T03:43:44;95851.75;;;19.56;100.00
2397;BME280;1209;48.410;9.054;2022-08-19T03:46:15;95843.97;;;19.37;100.00
2397;BME280;1209;48.410;9.054;2022-08-19T03:48:42;95844.19;;;19.47;100.00
2397;BME280;1209;48.410;9.054;2022-08-19T03:51:15;95854.53;;;19.49;100.00
2397;BME280;1209;48.410;9.054;2022-08-19T03:53:41;95862.09;;;19.57;100.00
2397;BME280;1209;48.410;9.054;2022-08-19T03:56:09;95861.84;;;19.42;100.00
2397;BME280;1209;48.410;9.054;2022-08-19T03:58:35;95849.19;;;19.32;100.00
2397;BME280;1209;48.410;9.054;2022-08-19T04:01:07;95848.66;;;19.47;100.00
2397;BME280;1209;48.410;9.054;2022-08-19T04:03:33;95852.53;;;19.39;100.00
2397;BME280;1209;48.410;9.054;2022-08-19T04:05:59;95848.84;;;19.40;100.00
2397;BME280;1209;48.410;9.054;2022-08-19T04:08:24;95854.22;;;19.45;100.00
2397;BME280;1209;48.410;9.054;2022-08-19T04:10:50;95843.19;;;19.37;100.00
2397;BME280;1209;48.410;9.054;2022-08-19T04:13:17;95837.66;;;19.38;100.00
2397;BME280;1209;48.410;9.054;2022-08-19T04:15:44;95841.44;;;19.42;100.00
2397;BME280;1209;48.410;9.054;2022-08-19T04:18:12;95845.03;;;19.36;100.00
2397;BME280;1209;48.410;9.054;2022-08-19T04:20:40;95843.59;;;19.29;100.00
2397;BME280;1209;48.410;9.054;2022-08-19T04:23:05;95845.09;;;19.25;100.00
2397;BME280;1209;48.410;9.054;2022-08-19T04:25:36;95839.66;;;19.31;100.00
2397;BME280;1209;48.410;9.054;2022-08-19T04:28:03;95841.34;;;19.37;100.00
2397;BME280;1209;48.410;9.054;2022-08-19T04:30:28;95840.78;;;19.35;100.00
2397;BME280;1209;48.410;9.054;2022-08-19T04:32:54;95843.19;;;19.37;100.00
2397;BME280;1209;48.410;9.054;2022-08-19T04:35:19;95852.16;;;19.36;100.00
2397;BME280;1209;48.410;9.054;2022-08-19T04:37:44;95847.50;;;19.26;100.00
2397;BME280;1209;48.410;9.054;2022-08-19T04:40:10;95852.59;;;19.44;100.00
2397;BME280;1209;48.410;9.054;2022-08-19T04:42:54;95854.13;;;19.40;100.00
2397;BME280;1209;48.410;9.054;2022-08-19T04:45:19;95853.53;;;19.38;100.00
2397;BME280;1209;48.410;9.054;2022-08-19T04:47:45;95851.88;;;19.49;100.00
2397;BME280;1209;48.410;9.054;2022-08-19T04:50:11;95856.38;;;19.48;100.00
2397;BME280;1209;48.410;9.054;2022-08-19T04:52:38;95862.44;;;19.32;100.00
2397;BME280;1209;48.410;9.054;2022-08-19T04:55:09;95871.28;;;19.38;100.00
2397;BME280;1209;48.410;9.054;2022-08-19T04:57:35;95874.31;;;19.30;100.00
2397;BME280;1209;48.410;9.054;2022-08-19T05:00:02;95870.34;;;19.44;100.00
2397;BME280;1209;48.410;9.054;2022-08-19T05:02:28;95876.16;;;19.29;100.00
2397;BME280;1209;48.410;9.054;2022-08-19T05:04:58;95885.09;;;19.40;100.00
2397;BME280;1209;48.410;9.054;2022-08-19T05:07:26;95890.53;;;19.33;100.00
2397;BME280;1209;48.410;9.054;2022-08-19T05:09:51;95889.69;;;19.44;100.00
2397;BME280;1209;48.410;9.054;2022-08-19T05:12:17;95908.66;;;19.25;100.00
2397;BME280;1209;48.410;9.054;2022-08-19T05:14:43;95914.19;;;19.23;100.00
2397;BME280;1209;48.410;9.054;2022-08-19T05:17:11;95919.25;;;19.25;100.00
2397;BME280;1209;48.410;9.054;2022-08-19T05:19:36;95926.16;;;19.26;100.00
2397;BME280;1209;48.410;9.054;2022-08-19T05:22:37;95931.19;;;19.27;100.00
2397;BME280;1209;48.410;9.054;2022-08-19T05:25:08;95932.16;;;19.21;100.00
2397;BME280;1209;48.410;9.054;2022-08-19T05:27:34;95942.03;;;19.26;100.00
2397;BME280;1209;48.410;9.054;2022-08-19T05:29:59;95937.69;;;19.19;100.00
2397;BME280;1209;48.410;9.054;2022-08-19T05:32:26;95939.94;;;19.28;100.00
2397;BME280;1209;48.410;9.054;2022-08-19T05:34:52;95944.13;;;19.24;100.00
2397;BME280;1209;48.410;9.054;2022-08-19T05:37:17;95944.69;;;19.26;100.00
2397;BME280;1209;48.410;9.054;2022-08-19T05:39:42;95947.00;;;19.22;100.00
2397;BME280;1209;48.410;9.054;2022-08-19T05:42:10;95950.22;;;19.24;100.00
2397;BME280;1209;48.410;9.054;2022-08-19T05:44:38;95946.94;;;19.34;100.00
2397;BME280;1209;48.410;9.054;2022-08-19T05:47:06;95948.38;;;19.25;100.00
2397;BME280;1209;48.410;9.054;2022-08-19T05:49:32;95942.84;;;19.26;100.00
2397;BME280;1209;48.410;9.054;2022-08-19T05:51:58;95950.88;;;19.31;100.00
2397;BME280;1209;48.410;9.054;2022-08-19T05:54:26;95944.19;;;19.40;100.00
2397;BME280;1209;48.410;9.054;2022-08-19T05:56:53;95939.47;;;19.31;100.00
2397;BME280;1209;48.410;9.054;2022-08-19T05:59:19;95937.88;;;19.30;100.00
2397;BME280;1209;48.410;9.054;2022-08-19T06:01:47;95933.38;;;19.30;100.00
2397;BME280;1209;48.410;9.054;2022-08-19T06:04:16;95935.44;;;19.40;100.00
2397;BME280;1209;48.410;9.054;2022-08-19T06:06:43;95937.44;;;19.49;100.00
2397;BME280;1209;48.410;9.054;2022-08-19T06:09:09;95947.19;;;19.61;100.00
2397;BME280;1209;48.410;9.054;2022-08-19T06:11:41;95957.09;;;19.65;100.00
2397;BME280;1209;48.410;9.054;2022-08-19T06:14:11;95948.03;;;19.78;100.00
2397;BME280;1209;48.410;9.054;2022-08-19T06:16:39;95954.13;;;19.78;100.00
2397;BME280;1209;48.410;9.054;2022-08-19T06:19:11;95949.63;;;19.79;100.00
2397;BME280;1209;48.410;9.054;2022-08-19T06:21:38;95955.72;;;19.79;100.00
2397;BME280;1209;48.410;9.054;2022-08-19T06:24:06;95958.09;;;19.93;100.00
2397;BME280;1209;48.410;9.054;2022-08-19T06:26:37;95946.59;;;19.87;100.00
2397;BME280;1209;48.410;9.054;2022-08-19T06:29:04;95939.66;;;19.86;100.00
2397;BME280;1209;48.410;9.054;2022-08-19T06:31:33;95942.78;;;19.83;100.00
2397;BME280;1209;48.410;9.054;2022-08-19T06:34:00;95952.91;;;19.69;100.00
2397;BME280;1209;48.410;9.054;2022-08-19T06:36:37;95954.34;;;19.77;100.00
2397;BME280;1209;48.410;9.054;2022-08-19T06:39:09;95953.41;;;19.83;100.00
2397;BME280;1209;48.410;9.054;2022-08-19T06:41:36;95961.41;;;19.71;100.00
2397;BME280;1209;48.410;9.054;2022-08-19T06:44:03;95961.25;;;19.61;100.00
2397;BME280;1209;48.410;9.054;2022-08-19T06:46:28;95957.31;;;19.64;100.00
2397;BME280;1209;48.410;9.054;2022-08-19T06:48:55;95960.00;;;19.52;100.00
2397;BME280;1209;48.410;9.054;2022-08-19T06:51:21;95961.00;;;19.63;100.00
2397;BME280;1209;48.410;9.054;2022-08-19T06:53:48;95961.00;;;19.63;100.00
2397;BME280;1209;48.410;9.054;2022-08-19T06:56:19;95962.53;;;19.59;100.00
2397;BME280;1209;48.410;9.054;2022-08-19T06:58:46;95963.59;;;19.58;100.00
2397;BME280;1209;48.410;9.054;2022-08-19T07:01:12;95963.19;;;19.66;100.00
2397;BME280;1209;48.410;9.054;2022-08-19T07:03:38;95967.03;;;19.58;100.00
2397;BME280;1209;48.410;9.054;2022-08-19T07:06:10;95971.06;;;19.61;100.00
2397;BME280;1209;48.410;9.054;2022-08-19T07:08:37;95965.66;;;19.56;100.00
2397;BME280;1209;48.410;9.054;2022-08-19T07:11:09;95960.94;;;19.58;100.00
2397;BME280;1209;48.410;9.054;2022-08-19T07:13:36;95954.50;;;19.54;100.00
2397;BME280;1209;48.410;9.054;2022-08-19T07:16:07;95961.66;;;19.53;100.00
2397;BME280;1209;48.410;9.054;2022-08-19T07:18:34;95969.13;;;19.56;100.00
2397;BME280;1209;48.410;9.054;2022-08-19T07:21:13;95970.47;;;19.59;100.00
2397;BME280;1209;48.410;9.054;2022-08-19T07:23:41;95968.81;;;19.41;100.00
2397;BME280;1209;48.410;9.054;2022-08-19T07:28:39;95970.16;;;19.55;100.00
2397;BME280;1209;48.410;9.054;2022-08-19T07:31:06;95966.94;;;19.53;100.00
2397;BME280;1209;48.410;9.054;2022-08-19T07:33:32;95957.16;;;19.54;100.00
2397;BME280;1209;48.410;9.054;2022-08-19T07:35:58;95964.28;;;19.53;100.00
2397;BME280;1209;48.410;9.054;2022-08-19T07:38:24;95962.66;;;19.52;100.00
2397;BME280;1209;48.410;9.054;2022-08-19T07:40:50;95972.72;;;19.38;100.00
2397;BME280;1209;48.410;9.054;2022-08-19T07:43:17;95959.03;;;19.41;100.00
2397;BME280;1209;48.410;9.054;2022-08-19T07:45:51;95968.44;;;19.49;100.00
2397;BME280;1209;48.410;9.054;2022-08-19T07:48:17;95957.16;;;19.54;100.00
2397;BME280;1209;48.410;9.054;2022-08-19T07:50:42;95959.00;;;19.53;100.00
2397;BME280;1209;48.410;9.054;2022-08-19T07:53:08;95962.66;;;19.52;100.00
2397;BME280;1209;48.410;9.054;2022-08-19T07:55:33;95965.78;;;19.49;100.00
2397;BME280;1209;48.410;9.054;2022-08-19T07:57:59;95964.38;;;19.58;100.00
2397;BME280;1209;48.410;9.054;2022-08-19T08:00:25;95961.81;;;19.63;100.00
2397;BME280;1209;48.410;9.054;2022-08-19T08:02:51;95959.31;;;19.57;100.00
2397;BME280;1209;48.410;9.054;2022-08-19T08:05:17;95966.81;;;19.48;100.00
2397;BME280;1209;48.410;9.054;2022-08-19T08:08:01;95968.78;;;19.53;100.00
2397;BME280;1209;48.410;9.054;2022-08-19T08:10:45;95969.47;;;19.48;100.00
2397;BME280;1209;48.410;9.054;2022-08-19T08:13:10;95969.34;;;19.55;100.00
2397;BME280;1209;48.410;9.054;2022-08-19T08:15:38;95967.44;;;19.67;100.00
2397;BME280;1209;48.410;9.054;2022-08-19T08:18:03;95977.00;;;19.68;100.00
2397;BME280;1209;48.410;9.054;2022-08-19T08:20:29;95969.53;;;19.65;100.00
2397;BME280;1209;48.410;9.054;2022-08-19T08:22:54;95968.63;;;19.59;100.00
2397;BME280;1209;48.410;9.054;2022-08-19T08:25:38;95972.66;;;19.62;100.00
2397;BME280;1209;48.410;9.054;2022-08-19T08:28:04;95977.66;;;19.75;100.00
2397;BME280;1209;48.410;9.054;2022-08-19T08:30:30;95982.00;;;19.81;100.00
2397;BME280;1209;48.410;9.054;2022-08-19T08:32:58;95982.16;;;19.74;100.00
2397;BME280;1209;48.410;9.054;2022-08-19T08:35:24;95979.72;;;19.73;100.00
2397;BME280;1209;48.410;9.054;2022-08-19T08:37:51;95982.72;;;19.76;100.00
2397;BME280;1209;48.410;9.054;2022-08-19T08:42:48;95990.63;;;19.88;100.00
2397;BME280;1209;48.410;9.054;2022-08-19T08:45:18;95988.03;;;19.93;100.00
2397;BME280;1209;48.410;9.054;2022-08-19T08:47:47;95992.78;;;19.91;100.00
2397;BME280;1209;48.410;9.054;2022-08-19T08:52:47;95993.34;;;19.93;100.00
2397;BME280;1209;48.410;9.054;2022-08-19T08:55:20;95988.13;;;19.98;100.00
2397;BME280;1209;48.410;9.054;2022-08-19T09:00:33;95985.72;;;19.97;100.00
2397;BME280;1209;48.410;9.054;2022-08-19T09:02:59;95984.97;;;19.85;100.00
2397;BME280;1209;48.410;9.054;2022-08-19T09:06:04;95991.53;;;19.82;100.00
2397;BME280;1209;48.410;9.054;2022-08-19T09:11:49;95992.91;;;19.85;100.00
2397;BME280;1209;48.410;9.054;2022-08-19T09:14:37;95983.00;;;19.92;100.00
2397;BME280;1209;48.410;9.054;2022-08-19T09:17:07;95991.50;;;19.94;100.00
2397;BME280;1209;48.410;9.054;2022-08-19T09:19:35;95983.06;;;19.97;100.00
2397;BME280;1209;48.410;9.054;2022-08-19T09:22:01;95982.50;;;19.95;100.00
2397;BME280;1209;48.410;9.054;2022-08-19T09:24:26;95988.78;;;19.89;100.00
2397;BME280;1209;48.410;9.054;2022-08-19T09:26:52;95987.28;;;19.81;100.00
2397;BME280;1209;48.410;9.054;2022-08-19T09:29:17;95993.31;;;19.76;100.00
2397;BME280;1209;48.410;9.054;2022-08-19T09:31:43;95998.28;;;19.73;100.00
2397;BME280;1209;48.410;9.054;2022-08-19T09:34:08;95994.59;;;19.74;100.00
2397;BME280;1209;48.410;9.054;2022-08-19T09:36:33;96004.72;;;19.77;100.00
2397;BME280;1209;48.410;9.054;2022-08-19T09:39:02;96003.25;;;19.69;100.00
2397;BME280;1209;48.410;9.054;2022-08-19T09:41:28;96006.00;;;19.74;100.00
2397;BME280;1209;48.410;9.054;2022-08-19T09:43:55;96006.00;;;19.74;100.00
2397;BME280;1209;48.410;9.054;2022-08-19T09:46:23;96008.94;;;19.61;100.00
2397;BME280;1209;48.410;9.054;2022-08-19T09:48:50;96014.09;;;19.68;100.00
2397;BME280;1209;48.410;9.054;2022-08-19T09:51:24;96017.47;;;19.52;100.00
2397;BME280;1209;48.410;9.054;2022-08-19T09:53:52;96018.91;;;19.42;100.00
2397;BME280;1209;48.410;9.054;2022-08-19T09:56:20;96015.53;;;19.47;100.00
2397;BME280;1209;48.410;9.054;2022-08-19T09:58:46;96017.06;;;19.43;100.00
2397;BME280;1209;48.410;9.054;2022-08-19T10:01:18;96012.78;;;19.54;100.00
2397;BME280;1209;48.410;9.054;2022-08-19T10:03:47;96026.22;;;19.52;100.00
2397;BME280;1209;48.410;9.054;2022-08-19T10:06:13;96023.94;;;19.56;100.00
2397;BME280;1209;48.410;9.054;2022-08-19T10:08:38;96023.00;;;19.62;100.00
2397;BME280;1209;48.410;9.054;2022-08-19T10:11:04;96028.38;;;19.67;100.00
2397;BME280;1209;48.410;9.054;2022-08-19T10:13:31;96038.28;;;19.71;100.00
2397;BME280;1209;48.410;9.054;2022-08-19T10:16:14;96039.63;;;19.74;100.00
2397;BME280;1209;48.410;9.054;2022-08-19T10:18:40;96045.19;;;19.72;100.00
2397;BME280;1209;48.410;9.054;2022-08-19T10:23:38;96040.19;;;19.88;100.00
2397;BME280;1209;48.410;9.054;2022-08-19T10:26:05;96035.00;;;19.81;100.00
2397;BME280;1209;48.410;9.054;2022-08-19T10:28:35;96031.63;;;19.86;100.00
2397;BME280;1209;48.410;9.054;2022-08-19T10:31:08;96043.88;;;20.03;100.00
2397;BME280;1209;48.410;9.054;2022-08-19T10:33:35;96037.13;;;19.96;100.00
2397;BME280;1209;48.410;9.054;2022-08-19T10:36:09;96038.09;;;19.90;100.00
2397;BME280;1209;48.410;9.054;2022-08-19T10:38:36;96035.44;;;19.90;100.00
2397;BME280;1209;48.410;9.054;2022-08-19T10:41:16;96042.72;;;19.83;100.00
2397;BME280;1209;48.410;9.054;2022-08-19T10:43:42;96047.22;;;19.82;100.00
2397;BME280;1209;48.410;9.054;2022-08-19T10:46:10;96041.56;;;19.78;100.00
2397;BME280;1209;48.410;9.054;2022-08-19T10:48:36;96047.13;;;19.77;100.00
2397;BME280;1209;48.410;9.054;2022-08-19T10:51:02;96042.06;;;19.75;100.00
2397;BME280;1209;48.410;9.054;2022-08-19T10:53:46;96043.28;;;19.85;100.00
2397;BME280;1209;48.410;9.054;2022-08-19T10:56:12;96044.31;;;19.84;100.00
2397;BME280;1209;48.410;9.054;2022-08-19T10:58:56;96044.06;;;19.85;100.00
2397;BME280;1209;48.410;9.054;2022-08-19T11:01:24;96046.16;;;19.83;100.00
2397;BME280;1209;48.410;9.054;2022-08-19T11:03:49;96045.28;;;19.77;100.00
2397;BME280;1209;48.410;9.054;2022-08-19T11:06:15;96034.44;;;19.79;100.00
2397;BME280;1209;48.410;9.054;2022-08-19T11:08:40;96040.28;;;19.81;100.00
2397;BME280;1209;48.410;9.054;2022-08-19T11:11:07;96038.44;;;19.81;100.00
2397;BME280;1209;48.410;9.054;2022-08-19T11:13:35;96042.38;;;19.79;100.00
2397;BME280;1209;48.410;9.054;2022-08-19T11:16:09;96044.56;;;19.82;100.00
2397;BME280;1209;48.410;9.054;2022-08-19T11:18:40;96035.09;;;19.86;100.00
2397;BME280;1209;48.410;9.054;2022-08-19T11:21:22;96041.06;;;19.93;100.00
2397;BME280;1209;48.410;9.054;2022-08-19T11:23:56;96049.66;;;20.00;100.00
2397;BME280;1209;48.410;9.054;2022-08-19T11:26:22;96050.31;;;19.91;100.00
2397;BME280;1209;48.410;9.054;2022-08-19T11:28:48;96046.44;;;19.98;100.00
2397;BME280;1209;48.410;9.054;2022-08-19T11:31:19;96048.06;;;19.99;100.00
2397;BME280;1209;48.410;9.054;2022-08-19T11:33:45;96049.19;;;20.03;100.00
2397;BME280;1209;48.410;9.054;2022-08-19T11:36:11;96047.66;;;20.07;100.00
2397;BME280;1209;48.410;9.054;2022-08-19T11:38:37;96052.41;;;20.05;100.00
2397;BME280;1209;48.410;9.054;2022-08-19T11:41:05;96048.63;;;20.01;100.00
2397;BME280;1209;48.410;9.054;2022-08-19T11:43:32;96055.53;;;20.02;100.00
2397;BME280;1209;48.410;9.054;2022-08-19T11:45:58;96050.00;;;20.04;100.00
2397;BME280;1209;48.410;9.054;2022-08-19T11:48:24;96047.59;;;20.02;100.00
2397;BME280;1209;48.410;9.054;2022-08-19T11:50:51;96045.00;;;20.07;100.00
2397;BME280;1209;48.410;9.054;2022-08-19T11:53:18;96043.81;;;20.15;100.00
2397;BME280;1209;48.410;9.054;2022-08-19T11:55:46;96045.19;;;20.18;100.00
2397;BME280;1209;48.410;9.054;2022-08-19T11:58:13;96044.63;;;19.70;100.00
2397;BME280;1209;48.410;9.054;2022-08-19T12:00:40;96046.63;;;19.80;100.00
2397;BME280;1209;48.410;9.054;2022-08-19T12:03:06;96040.44;;;20.03;100.00
2397;BME280;1209;48.410;9.054;2022-08-19T12:05:32;96047.50;;;20.14;100.00
2397;BME280;1209;48.410;9.054;2022-08-19T12:07:57;96050.81;;;20.21;100.00
2397;BME280;1209;48.410;9.054;2022-08-19T12:10:23;96051.03;;;20.03;100.00
2397;BME280;1209;48.410;9.054;2022-08-19T12:12:48;96047.34;;;20.21;100.00
2397;BME280;1209;48.410;9.054;2022-08-19T12:15:14;96047.34;;;20.21;100.00
2397;BME280;1209;48.410;9.054;2022-08-19T12:17:41;96056.09;;;20.04;100.00
2397;BME280;1209;48.410;9.054;2022-08-19T12:20:09;96046.78;;;20.02;100.00
2397;BME280;1209;48.410;9.054;2022-08-19T12:22:36;96047.50;;;20.14;100.00
2397;BME280;1209;48.410;9.054;2022-08-19T12:25:02;96052.41;;;20.22;100.00
2397;BME280;1209;48.410;9.054;2022-08-19T12:27:27;96035.69;;;19.88;100.00
2397;BME280;1209;48.410;9.054;2022-08-19T12:29:53;96046.06;;;20.06;100.00
2397;BME280;1209;48.410;9.054;2022-08-19T12:32:18;96036.00;;;20.08;100.00
2397;BME280;1209;48.410;9.054;2022-08-19T12:34:43;96037.63;;;20.09;100.00
2397;BME280;1209;48.410;9.054;2022-08-19T12:37:09;96037.63;;;20.09;100.00
2397;BME280;1209;48.410;9.054;2022-08-19T12:39:41;96035.53;;;20.11;100.00
2397;BME280;1209;48.410;9.054;2022-08-19T12:42:08;96031.91;;;20.18;100.00
2397;BME280;1209;48.410;9.054;2022-08-19T12:44:35;96028.84;;;19.92;100.00
2397;BME280;1209;48.410;9.054;2022-08-19T12:47:01;96029.66;;;20.09;100.00
2397;BME280;1209;48.410;9.054;2022-08-19T12:49:29;96034.34;;;20.19;100.00
2397;BME280;1209;48.410;9.054;2022-08-19T12:51:54;96033.69;;;20.29;100.00
2397;BME280;1209;48.410;9.054;2022-08-19T12:54:20;96033.44;;;20.30;100.00
2397;BME280;1209;48.410;9.054;2022-08-19T12:56:45;96035.63;;;20.33;100.00
2397;BME280;1209;48.410;9.054;2022-08-19T12:59:10;96028.50;;;20.34;100.00
2397;BME280;1209;48.410;9.054;2022-08-19T13:01:36;96033.25;;;20.49;100.00
2397;BME280;1209;48.410;9.054;2022-08-19T13:04:02;96032.06;;;20.39;100.00
2397;BME280;1209;48.410;9.054;2022-08-19T13:06:27;96025.72;;;20.29;100.00
2397;BME280;1209;48.410;9.054;2022-08-19T13:08:54;96032.63;;;20.41;100.00
2397;BME280;1209;48.410;9.054;2022-08-19T13:11:20;96030.75;;;20.42;100.00
2397;BME280;1209;48.410;9.054;2022-08-19T13:13:49;96026.84;;;20.33;100.00
2397;BME280;1209;48.410;9.054;2022-08-19T13:16:16;96025.25;;;20.32;100.00
2397;BME280;1209;48.410;9.054;2022-08-19T13:18:44;96031.41;;;20.49;100.00
2397;BME280;1209;48.410;9.054;2022-08-19T13:21:12;96033.50;;;20.47;100.00
2397;BME280;1209;48.410;9.054;2022-08-19T13:23:38;96033.63;;;20.57;100.00
2397;BME280;1209;48.410;9.054;2022-08-19T13:26:06;96033.06;;;20.55;100.00
2397;BME280;1209;48.410;9.054;2022-08-19T13:28:33;96034.94;;;20.55;100.00
2397;BME280;1209;48.410;9.054;2022-08-19T13:31:19;96033.41;;;20.42;100.00